createdAt,value
2022-11-20T00:01:42.107Z,92.08
2022-11-20T00:04:29.919Z,92.27
2022-11-20T00:07:17.702Z,92.65
2022-11-20T00:10:05.943Z,93.01
2022-11-20T00:12:53.484Z,93.18
2022-11-20T00:15:40.903Z,92.63
2022-11-20T00:18:29.137Z,92.68
2022-11-20T00:21:22.008Z,92.74
2022-11-20T00:24:11.635Z,92.63
2022-11-20T00:26:59.592Z,92.40
2022-11-20T00:29:47.615Z,92.12
2022-11-20T00:32:35.610Z,92.03
2022-11-20T00:35:23.075Z,92.42
2022-11-20T00:38:10.837Z,92.33
2022-11-20T00:41:00.660Z,92.81
2022-11-20T00:43:48.740Z,93.36
2022-11-20T00:46:36.698Z,93.12
2022-11-20T00:49:24.605Z,93.33
2022-11-20T00:52:12.201Z,93.24
2022-11-20T00:55:00.052Z,93.23
2022-11-20T00:57:47.490Z,93.16
2022-11-20T01:00:35.568Z,92.79
2022-11-20T01:03:27.021Z,92.78
2022-11-20T01:06:18.747Z,92.80
2022-11-20T01:09:15.739Z,92.55
2022-11-20T01:12:03.852Z,92.55
2022-11-20T01:14:51.620Z,92.78
2022-11-20T01:17:39.251Z,92.61
2022-11-20T01:20:26.950Z,92.54
2022-11-20T01:23:14.785Z,92.32
2022-11-20T01:26:05.893Z,92.57
2022-11-20T01:28:54.679Z,92.77
2022-11-20T01:31:43.299Z,93.02
2022-11-20T01:34:31.117Z,93.23
2022-11-20T01:37:18.622Z,93.03
2022-11-20T01:40:07.497Z,93.33
2022-11-20T01:43:24.361Z,92.99
2022-11-20T01:46:20.111Z,92.93
2022-11-20T01:50:14.257Z,92.88
2022-11-20T01:53:11.328Z,92.82
2022-11-20T01:56:02.875Z,92.63
2022-11-20T01:58:57.306Z,92.39
2022-11-20T02:01:45.146Z,92.39
2022-11-20T02:04:33.193Z,92.01
2022-11-20T02:07:21.297Z,91.42
2022-11-20T02:10:09.157Z,91.11
2022-11-20T02:13:16.381Z,91.16
2022-11-20T02:16:05.020Z,91.18
2022-11-20T02:18:55.982Z,91.32
2022-11-20T02:22:09.165Z,91.32
2022-11-20T02:24:59.378Z,91.32
2022-11-20T02:27:47.750Z,91.38
2022-11-20T02:30:35.803Z,91.33
2022-11-20T02:33:23.485Z,91.56
2022-11-20T02:36:15.392Z,91.64
2022-11-20T02:39:05.150Z,91.26
2022-11-20T02:41:55.121Z,91.52
2022-11-20T02:44:42.801Z,91.55
2022-11-20T02:47:30.462Z,91.61
2022-11-20T02:50:18.532Z,91.40
2022-11-20T02:53:05.918Z,91.35
2022-11-20T02:55:53.665Z,91.51
2022-11-20T02:58:41.541Z,91.65
2022-11-20T03:01:29.538Z,91.60
2022-11-20T03:04:17.187Z,91.85
2022-11-20T03:07:07.519Z,91.96
2022-11-20T03:09:55.638Z,91.83
2022-11-20T03:12:43.516Z,91.71
2022-11-20T03:15:31.377Z,92.15
2022-11-20T03:18:18.874Z,91.97
2022-11-20T03:21:07.751Z,91.93
2022-11-20T03:23:55.942Z,92.07
2022-11-20T03:26:43.511Z,91.81
2022-11-20T03:29:31.363Z,91.96
2022-11-20T03:32:19.113Z,91.70
2022-11-20T03:35:07.519Z,91.68
2022-11-20T03:37:54.997Z,91.94
2022-11-20T03:40:43.046Z,91.70
2022-11-20T03:43:31.283Z,91.72
2022-11-20T03:46:19.020Z,91.63
2022-11-20T03:49:07.081Z,91.37
2022-11-20T03:51:54.647Z,91.46
2022-11-20T03:54:42.329Z,91.57
2022-11-20T03:57:29.598Z,91.76
2022-11-20T04:00:17.498Z,91.66
2022-11-20T04:03:05.286Z,91.58
2022-11-20T04:05:53.107Z,91.66
2022-11-20T04:08:42.571Z,91.49
2022-11-20T04:11:33.942Z,91.24
2022-11-20T04:14:21.655Z,91.28
2022-11-20T04:17:09.472Z,91.54
2022-11-20T04:19:57.467Z,91.40
2022-11-20T04:22:45.280Z,91.06
2022-11-20T04:25:34.052Z,91.06
2022-11-20T04:28:21.920Z,91.14
2022-11-20T04:31:16.584Z,91.30
2022-11-20T04:34:07.480Z,91.30
2022-11-20T04:36:54.954Z,91.51
2022-11-20T04:39:42.592Z,91.35
2022-11-20T04:42:30.097Z,91.62
2022-11-20T04:45:18.036Z,91.59
2022-11-20T04:48:06.218Z,91.59
2022-11-20T04:50:54.699Z,91.79
2022-11-20T04:53:43.180Z,91.62
2022-11-20T04:56:30.946Z,91.50
2022-11-20T04:59:19.215Z,91.77
2022-11-20T05:02:07.340Z,91.91
2022-11-20T05:04:54.974Z,91.94
2022-11-20T05:07:42.911Z,92.40
2022-11-20T05:10:30.636Z,92.24
2022-11-20T05:13:18.380Z,92.23
2022-11-20T05:16:10.891Z,92.31
2022-11-20T05:18:58.346Z,92.32
2022-11-20T05:21:45.877Z,92.15
2022-11-20T05:24:33.480Z,92.07
2022-11-20T05:27:21.510Z,91.83
2022-11-20T05:30:10.627Z,91.89
2022-11-20T05:32:58.703Z,91.99
2022-11-20T05:35:46.366Z,91.93
2022-11-20T05:38:34.668Z,92.07
2022-11-20T05:41:22.506Z,91.99
2022-11-20T05:44:13.452Z,92.15
2022-11-20T05:47:01.258Z,91.91
2022-11-20T05:49:48.950Z,91.45
2022-11-20T05:52:37.502Z,91.42
2022-11-20T05:55:25.078Z,91.01
2022-11-20T05:58:12.862Z,91.68
2022-11-20T06:01:12.764Z,91.51
2022-11-20T06:04:00.412Z,91.41
2022-11-20T06:06:50.563Z,91.36
2022-11-20T06:09:38.755Z,91.07
2022-11-20T06:12:26.179Z,91.28
2022-11-20T06:15:14.226Z,90.75
2022-11-20T06:18:02.096Z,91.24
2022-11-20T06:20:49.819Z,90.91
2022-11-20T06:23:38.533Z,90.92
2022-11-20T06:26:28.910Z,91.46
2022-11-20T06:29:16.938Z,91.65
2022-11-20T06:32:04.973Z,91.60
2022-11-20T06:34:52.679Z,91.90
2022-11-20T06:37:40.202Z,91.37
2022-11-20T06:40:27.801Z,91.40
2022-11-20T06:43:15.535Z,91.06
2022-11-20T06:46:03.792Z,90.94
2022-11-20T06:48:52.206Z,91.00
2022-11-20T06:51:39.765Z,90.73
2022-11-20T06:54:27.206Z,90.60
2022-11-20T06:57:15.032Z,90.82
2022-11-20T07:00:02.462Z,90.99
2022-11-20T07:02:50.945Z,90.79
2022-11-20T07:05:39.607Z,90.75
2022-11-20T07:08:27.621Z,90.64
2022-11-20T07:11:15.326Z,91.06
2022-11-20T07:14:03.112Z,91.60
2022-11-20T07:16:50.968Z,91.13
2022-11-20T07:19:38.634Z,90.81
2022-11-20T07:22:27.809Z,90.78
2022-11-20T07:25:15.718Z,90.92
2022-11-20T07:28:04.787Z,91.03
2022-11-20T07:30:54.866Z,90.68
2022-11-20T07:33:43.100Z,90.57
2022-11-20T07:36:30.824Z,90.68
2022-11-20T07:39:18.710Z,90.68
2022-11-20T07:42:10.655Z,90.52
2022-11-20T07:44:58.907Z,90.13
2022-11-20T07:47:46.617Z,89.97
2022-11-20T07:50:34.325Z,89.74
2022-11-20T07:53:22.835Z,89.88
2022-11-20T07:56:10.737Z,89.81
2022-11-20T07:58:58.566Z,89.74
2022-11-20T08:01:46.116Z,88.93
2022-11-20T08:04:34.265Z,88.99
2022-11-20T08:07:22.004Z,88.12
2022-11-20T08:10:12.812Z,87.63
2022-11-20T08:13:18.976Z,87.00
2022-11-20T08:16:06.874Z,86.75
2022-11-20T08:18:54.731Z,86.13
2022-11-20T08:21:42.792Z,86.02
2022-11-20T08:24:30.505Z,85.87
2022-11-20T08:27:18.246Z,85.85
2022-11-20T08:30:07.260Z,85.83
2022-11-20T08:32:55.936Z,85.96
2022-11-20T08:35:43.973Z,86.05
2022-11-20T08:38:33.110Z,85.36
2022-11-20T08:41:32.745Z,84.55
2022-11-20T08:44:20.343Z,83.81
2022-11-20T08:47:08.195Z,83.04
2022-11-20T08:49:55.749Z,83.10
2022-11-20T08:52:43.676Z,82.91
2022-11-20T08:55:31.594Z,82.83
2022-11-20T08:58:19.066Z,82.35
2022-11-20T09:01:07.012Z,81.99
2022-11-20T09:03:58.114Z,82.13
2022-11-20T09:06:46.054Z,81.68
2022-11-20T09:09:34.034Z,81.56
2022-11-20T09:12:21.464Z,81.63
2022-11-20T09:15:09.572Z,82.46
2022-11-20T09:18:03.753Z,82.75
2022-11-20T09:20:52.474Z,82.84
2022-11-20T09:23:41.504Z,83.45
2022-11-20T09:26:29.587Z,83.35
2022-11-20T09:29:21.211Z,83.12
2022-11-20T09:32:09.104Z,83.12
2022-11-20T09:34:56.805Z,82.40
2022-11-20T09:37:45.603Z,82.64
2022-11-20T09:40:36.140Z,82.46
2022-11-20T09:43:45.956Z,81.59
2022-11-20T09:46:45.010Z,80.86
2022-11-20T09:50:16.104Z,79.93
2022-11-20T09:53:37.948Z,79.56
2022-11-20T09:56:27.050Z,79.10
2022-11-20T09:59:41.655Z,79.24
2022-11-20T10:02:42.213Z,78.62
2022-11-20T10:05:46.260Z,79.08
2022-11-20T10:08:46.126Z,79.85
2022-11-20T10:12:00.263Z,80.60
2022-11-20T10:15:25.423Z,81.46
2022-11-20T10:18:38.952Z,81.90
2022-11-20T10:21:48.619Z,81.68
2022-11-20T10:24:45.243Z,81.99
2022-11-20T10:27:41.971Z,81.33
2022-11-20T10:30:31.330Z,81.08
2022-11-20T10:33:24.597Z,81.06
2022-11-20T10:36:31.514Z,80.41
2022-11-20T10:39:22.249Z,80.09
2022-11-20T10:42:17.812Z,80.37
2022-11-20T10:45:43.297Z,80.45
2022-11-20T10:48:33.613Z,80.29
2022-11-20T10:51:45.796Z,80.25
2022-11-20T10:55:03.485Z,80.50
2022-11-20T10:58:26.553Z,79.95
2022-11-20T11:01:25.595Z,80.18
2022-11-20T11:04:44.251Z,80.27
2022-11-20T11:07:39.865Z,80.87
2022-11-20T11:10:59.007Z,81.13
2022-11-20T11:13:46.921Z,80.60
2022-11-20T11:16:34.815Z,79.62
2022-11-20T11:19:23.293Z,79.27
2022-11-20T11:22:19.151Z,78.88
2022-11-20T11:25:39.857Z,78.33
2022-11-20T11:28:29.545Z,77.42
2022-11-20T11:31:29.732Z,77.61
2022-11-20T11:34:18.640Z,77.21
2022-11-20T11:37:16.192Z,77.01
2022-11-20T11:43:43.777Z,76.96
2022-11-20T11:46:36.854Z,76.73
2022-11-20T11:49:24.917Z,77.36
2022-11-20T11:52:25.433Z,77.83
2022-11-20T11:55:41.760Z,78.12
2022-11-20T11:58:53.013Z,77.85
2022-11-20T12:01:50.132Z,77.21
2022-11-20T12:04:44.728Z,76.85
2022-11-20T12:07:51.849Z,76.60
2022-11-20T12:11:07.553Z,75.62
2022-11-20T12:14:25.149Z,76.42
2022-11-20T12:17:15.233Z,76.77
2022-11-20T12:20:03.694Z,76.65
2022-11-20T12:23:15.493Z,76.89
2022-11-20T12:26:16.688Z,76.63
2022-11-20T12:29:23.589Z,77.02
2022-11-20T12:32:19.676Z,76.69
2022-11-20T12:35:50.145Z,76.74
2022-11-20T12:38:53.608Z,76.57
2022-11-20T12:42:43.003Z,77.08
2022-11-20T12:46:00.082Z,77.25
2022-11-20T12:49:44.967Z,76.91
2022-11-20T12:53:01.009Z,77.63
2022-11-20T12:55:57.724Z,78.57
2022-11-20T12:59:14.699Z,79.40
2022-11-20T13:02:50.679Z,80.24
2022-11-20T13:06:05.808Z,80.97
2022-11-20T13:08:59.539Z,81.81
2022-11-20T13:12:09.207Z,82.29
2022-11-20T13:15:12.951Z,82.67
2022-11-20T13:18:07.276Z,83.30
2022-11-20T13:20:56.293Z,83.51
2022-11-20T13:23:44.082Z,83.86
2022-11-20T13:26:31.771Z,84.24
2022-11-20T13:29:20.712Z,84.60
2022-11-20T13:32:16.420Z,84.70
2022-11-20T13:35:06.611Z,85.09
2022-11-20T13:38:09.346Z,85.27
2022-11-20T13:41:21.954Z,85.22
2022-11-20T13:44:36.356Z,85.51
2022-11-20T13:47:28.066Z,85.50
2022-11-20T13:50:16.108Z,85.95
2022-11-20T13:53:07.788Z,86.13
2022-11-20T13:56:12.005Z,86.58
2022-11-20T13:59:51.374Z,86.94
2022-11-20T14:02:40.036Z,87.07
2022-11-20T14:05:29.444Z,87.25
2022-11-20T14:08:40.788Z,87.35
2022-11-20T14:11:32.813Z,87.30
2022-11-20T14:14:27.469Z,87.73
2022-11-20T14:17:26.286Z,87.90
2022-11-20T14:20:16.492Z,88.12
2022-11-20T14:23:06.200Z,88.39
2022-11-20T14:25:54.966Z,88.35
2022-11-20T14:28:43.067Z,88.57
2022-11-20T14:31:31.633Z,89.03
2022-11-20T14:34:30.186Z,88.94
2022-11-20T14:37:26.942Z,89.20
2022-11-20T14:40:38.807Z,89.38
2022-11-20T14:43:29.940Z,89.80
2022-11-20T14:46:18.902Z,90.04
2022-11-20T14:49:06.958Z,90.06
2022-11-20T14:52:03.884Z,90.29
2022-11-20T14:54:57.915Z,90.52
2022-11-20T14:57:56.543Z,90.39
2022-11-20T15:00:56.064Z,90.68
2022-11-20T15:03:43.759Z,90.91
2022-11-20T15:06:32.446Z,91.09
2022-11-20T15:09:20.634Z,91.26
2022-11-20T15:12:19.094Z,91.12
2022-11-20T15:15:11.852Z,91.55
2022-11-20T15:17:59.816Z,91.34
2022-11-20T15:20:47.530Z,91.57
2022-11-20T15:23:35.707Z,91.46
2022-11-20T15:26:29.049Z,91.47
2022-11-20T15:29:22.050Z,91.56
2022-11-20T15:32:13.584Z,91.40
2022-11-20T15:35:01.701Z,91.50
2022-11-20T15:37:49.548Z,91.65
2022-11-20T15:40:37.828Z,91.86
2022-11-20T15:43:26.006Z,91.71
2022-11-20T15:46:18.320Z,91.87
2022-11-20T15:49:07.758Z,91.87
2022-11-20T15:51:56.029Z,92.08
2022-11-20T15:54:43.932Z,92.05
2022-11-20T15:57:34.763Z,92.28
2022-11-20T16:00:23.864Z,92.26
2022-11-20T16:03:14.131Z,92.06
2022-11-20T16:06:01.998Z,92.14
2022-11-20T16:08:49.920Z,92.37
2022-11-20T16:11:38.477Z,92.45
2022-11-20T16:14:46.148Z,92.30
2022-11-20T16:17:43.511Z,92.47
2022-11-20T16:20:31.179Z,92.37
2022-11-20T16:23:19.285Z,92.16
2022-11-20T16:26:18.034Z,92.27
2022-11-20T16:29:08.139Z,92.20
2022-11-20T16:31:57.893Z,91.97
2022-11-20T16:34:47.443Z,92.05
2022-11-20T16:37:35.697Z,92.24
2022-11-20T16:40:24.562Z,91.88
2022-11-20T16:43:14.936Z,91.96
2022-11-20T16:46:09.671Z,92.21
2022-11-20T16:49:03.009Z,92.06
2022-11-20T16:51:51.971Z,92.26
2022-11-20T16:54:39.702Z,92.28
2022-11-20T16:57:33.047Z,92.37
2022-11-20T17:00:20.827Z,92.26
2022-11-20T17:03:08.898Z,92.48
2022-11-20T17:05:56.534Z,92.66
2022-11-20T17:08:45.796Z,93.05
2022-11-20T17:11:33.964Z,93.06
2022-11-20T17:14:21.892Z,93.03
2022-11-20T17:17:10.035Z,93.69
2022-11-20T17:19:57.646Z,93.84
2022-11-20T17:22:45.844Z,93.91
2022-11-20T17:25:34.603Z,93.91
2022-11-20T17:28:24.531Z,94.35
2022-11-20T17:31:16.343Z,94.39
2022-11-20T17:34:06.341Z,94.39
2022-11-20T17:36:55.555Z,94.67
2022-11-20T17:39:44.838Z,94.53
2022-11-20T17:42:36.888Z,94.35
2022-11-20T17:45:24.692Z,94.68
2022-11-20T17:48:13.074Z,94.78
2022-11-20T17:51:06.523Z,95.14
2022-11-20T17:54:00.820Z,95.16
2022-11-20T17:57:06.796Z,94.79
2022-11-20T17:59:54.706Z,95.31
2022-11-20T18:02:42.491Z,95.14
2022-11-20T18:05:33.741Z,95.04
2022-11-20T18:08:21.993Z,95.27
2022-11-20T18:11:15.473Z,95.29
2022-11-20T18:14:26.638Z,95.38
2022-11-20T18:17:15.991Z,95.17
2022-11-20T18:20:27.898Z,95.03
2022-11-20T18:23:13.183Z,95.33
2022-11-20T18:26:01.013Z,95.14
2022-11-20T18:28:48.628Z,95.21
2022-11-20T18:31:36.226Z,95.46
2022-11-20T18:34:24.334Z,95.32
2022-11-20T18:37:15.366Z,95.08
2022-11-20T18:40:04.434Z,95.11
2022-11-20T18:43:10.913Z,94.98
2022-11-20T18:46:05.142Z,95.11
2022-11-20T18:48:53.239Z,95.12
2022-11-20T18:51:44.359Z,95.01
2022-11-20T18:54:35.673Z,94.83
2022-11-20T18:57:27.200Z,94.93
2022-11-20T19:00:15.064Z,94.63
2022-11-20T19:03:08.272Z,94.70
2022-11-20T19:05:58.845Z,94.82
2022-11-20T19:08:47.221Z,94.59
2022-11-20T19:11:36.284Z,94.54
2022-11-20T19:14:23.957Z,94.64
2022-11-20T19:17:13.672Z,94.82
2022-11-20T19:20:01.362Z,94.82
2022-11-20T19:22:53.894Z,94.71
2022-11-20T19:25:43.795Z,94.65
2022-11-20T19:28:33.117Z,94.89
2022-11-20T19:31:27.125Z,94.78
2022-11-20T19:34:15.752Z,94.66
2022-11-20T19:37:03.637Z,94.90
2022-11-20T19:39:51.585Z,94.77
2022-11-20T19:42:39.756Z,94.46
2022-11-20T19:45:27.290Z,94.82
2022-11-20T19:48:14.793Z,94.55
2022-11-20T19:51:12.087Z,94.70
2022-11-20T19:54:01.246Z,94.98
2022-11-20T19:56:49.657Z,95.29
2022-11-20T19:59:42.547Z,95.57
2022-11-20T20:02:32.185Z,95.69
2022-11-20T20:05:19.909Z,95.72
2022-11-20T20:08:07.974Z,95.76
2022-11-20T20:10:59.374Z,95.89
2022-11-20T20:13:48.187Z,96.05
2022-11-20T20:16:36.285Z,96.11
2022-11-20T20:19:24.318Z,96.68
2022-11-20T20:22:12.138Z,97.04
2022-11-20T20:24:59.866Z,97.22
2022-11-20T20:27:47.716Z,97.30
2022-11-20T20:30:35.972Z,97.29
2022-11-20T20:33:24.380Z,96.87
2022-11-20T20:36:14.877Z,97.07
2022-11-20T20:39:05.124Z,97.21
2022-11-20T20:41:52.860Z,97.02
2022-11-20T20:44:59.572Z,96.81
2022-11-20T20:47:47.622Z,96.76
2022-11-20T20:50:35.776Z,96.78
2022-11-20T20:53:24.717Z,96.78
2022-11-20T20:56:12.794Z,96.75
2022-11-20T20:59:00.576Z,96.61
2022-11-20T21:01:48.581Z,96.83
2022-11-20T21:04:36.509Z,96.26
2022-11-20T21:07:24.255Z,96.22
2022-11-20T21:10:12.536Z,96.35
2022-11-20T21:13:00.361Z,96.30
2022-11-20T21:15:51.506Z,96.22
2022-11-20T21:18:39.153Z,96.15
2022-11-20T21:22:01.529Z,95.98
2022-11-20T21:24:49.210Z,96.08
2022-11-20T21:27:37.037Z,96.00
2022-11-20T21:30:25.231Z,95.91
2022-11-20T21:33:13.389Z,95.99
2022-11-20T21:36:03.145Z,95.91
2022-11-20T21:38:54.197Z,95.92
2022-11-20T21:41:42.627Z,95.90
2022-11-20T21:44:41.347Z,96.20
2022-11-20T21:47:29.916Z,96.22
2022-11-20T21:50:22.333Z,96.56
2022-11-20T21:53:10.293Z,96.39
2022-11-20T21:55:59.721Z,96.49
2022-11-20T21:58:48.142Z,96.54
2022-11-20T22:01:35.960Z,96.67
2022-11-20T22:04:24.768Z,96.69
2022-11-20T22:07:12.552Z,96.72
2022-11-20T22:10:00.230Z,96.50
2022-11-20T22:12:48.153Z,96.65
2022-11-20T22:15:59.327Z,96.61
2022-11-20T22:18:45.476Z,96.24
2022-11-20T22:21:34.198Z,96.52
2022-11-20T22:24:25.242Z,96.32
2022-11-20T22:27:13.486Z,96.18
2022-11-20T22:30:01.303Z,95.80
2022-11-20T22:32:49.036Z,95.67
2022-11-20T22:35:37.243Z,95.50
2022-11-20T22:38:29.365Z,95.38
2022-11-20T22:41:19.685Z,95.43
2022-11-20T22:44:08.837Z,95.68
2022-11-20T22:46:56.707Z,95.28
2022-11-20T22:49:44.506Z,95.35
2022-11-20T22:52:39.945Z,95.52
2022-11-20T22:55:27.924Z,95.58
2022-11-20T22:58:15.305Z,95.45
2022-11-20T23:01:32.253Z,95.56
2022-11-20T23:04:20.038Z,95.32
2022-11-20T23:07:08.406Z,95.33
2022-11-20T23:09:56.006Z,95.23
2022-11-20T23:12:43.494Z,95.40
2022-11-20T23:15:33.415Z,95.33
2022-11-20T23:18:21.319Z,94.85
2022-11-20T23:21:15.430Z,94.96
2022-11-20T23:24:04.190Z,94.91
2022-11-20T23:26:51.695Z,95.23
2022-11-20T23:29:39.225Z,95.26
2022-11-20T23:32:27.022Z,95.28
2022-11-20T23:35:15.224Z,95.40
2022-11-20T23:38:03.245Z,95.54
2022-11-20T23:40:52.415Z,95.50
2022-11-20T23:43:41.251Z,95.57
2022-11-20T23:46:29.475Z,95.81
2022-11-20T23:49:18.833Z,96.45
2022-11-20T23:52:07.642Z,96.92
2022-11-20T23:54:55.721Z,96.77
2022-11-20T23:57:45.618Z,97.17
